Time;durP1;ratioP1;P1;durP2;ratioP2;P2;SDS_P1;SDS_P2;PMS_P1;PMS_P2;Temp;Humidity;BMP_temperature;BMP_pressure;BME280_temperature;BME280_humidity;BME280_pressure;Samples;Min_cycle;Max_cycle;Signal;HPM_P1;HPM_P2
2022/01/22 00:00:06;;;;;;;6.73;5.53;;;;;;;2.97;100.00;101696.91;5057620;28;20259;-52
2022/01/22 00:02:33;;;;;;;10.03;6.13;;;;;;;2.97;100.00;101702.97;5056853;28;20231;-51
2022/01/22 00:04:59;;;;;;;6.87;6.17;;;;;;;3.09;100.00;101703.53;5066270;28;20253;-51
2022/01/22 00:07:25;;;;;;;8.57;6.17;;;;;;;3.09;100.00;101715.63;5054915;28;20250;-51
2022/01/22 00:09:58;;;;;;;6.33;5.37;;;;;;;3.02;100.00;101716.13;5059011;28;20264;-52
2022/01/22 00:12:43;;;;;;;6.73;5.63;;;;;;;3.10;100.00;101720.88;5062696;28;20314;-51
2022/01/22 00:15:11;;;;;;;6.83;5.30;;;;;;;3.10;100.00;101710.50;5069049;28;20726;-53
2022/01/22 00:17:38;;;;;;;7.13;6.00;;;;;;;3.05;100.00;101703.31;5060204;28;20243;-52
2022/01/22 00:20:05;;;;;;;8.53;5.47;;;;;;;3.00;100.00;101708.31;5069060;28;20252;-51
2022/01/22 00:22:34;;;;;;;6.53;5.50;;;;;;;3.10;100.00;101720.88;5066335;28;20237;-50
2022/01/22 00:25:01;;;;;;;7.37;6.60;;;;;;;3.06;100.00;101715.47;5070568;28;20229;-51
2022/01/22 00:27:28;;;;;;;7.13;5.70;;;;;;;3.11;100.00;101711.38;5068801;28;20230;-53
2022/01/22 00:29:55;;;;;;;8.13;5.93;;;;;;;3.10;100.00;101712.22;5061331;28;20259;-50
2022/01/22 00:32:23;;;;;;;11.63;7.47;;;;;;;3.12;100.00;101718.34;5072825;28;20227;-53
2022/01/22 00:34:49;;;;;;;7.33;5.73;;;;;;;3.10;100.00;101709.63;5068928;28;20242;-51
2022/01/22 00:37:16;;;;;;;10.13;7.17;;;;;;;3.15;100.00;101708.09;5064782;28;20304;-51
2022/01/22 00:39:42;;;;;;;9.57;5.73;;;;;;;3.15;100.00;101702.91;5066796;28;20239;-51
2022/01/22 00:42:12;;;;;;;6.63;5.40;;;;;;;3.12;100.00;101713.16;5074742;28;20230;-53
2022/01/22 00:44:39;;;;;;;7.43;5.70;;;;;;;3.20;100.00;101721.31;5077532;28;20239;-50
2022/01/22 00:47:05;;;;;;;7.90;6.73;;;;;;;3.19;100.00;101710.00;5067418;28;20496;-51
2022/01/22 00:49:34;;;;;;;8.47;7.10;;;;;;;3.31;100.00;101715.75;5069400;28;20324;-51
2022/01/22 00:52:01;;;;;;;7.80;6.77;;;;;;;3.31;100.00;101717.47;5054908;28;20223;-49
2022/01/22 00:54:27;;;;;;;7.13;6.43;;;;;;;3.24;100.00;101720.59;5058793;28;20755;-52
2022/01/22 00:56:54;;;;;;;7.83;6.20;;;;;;;3.18;100.00;101722.94;5062397;28;20267;-49
2022/01/22 00:59:20;;;;;;;6.17;5.57;;;;;;;3.24;100.00;101729.28;5055670;28;20227;-52
2022/01/22 01:01:46;;;;;;;7.97;6.30;;;;;;;3.13;100.00;101735.69;5064340;28;20258;-52
2022/01/22 01:04:13;;;;;;;7.40;5.83;;;;;;;3.16;100.00;101735.84;5065707;28;20226;-52
2022/01/22 01:06:40;;;;;;;6.43;5.20;;;;;;;3.32;100.00;101747.78;5064841;28;20619;-50
2022/01/22 01:09:09;;;;;;;6.40;5.03;;;;;;;3.29;100.00;101738.16;5055919;28;20251;-52
2022/01/22 01:11:40;;;;;;;6.30;5.07;;;;;;;3.28;100.00;101740.69;5062742;28;20240;-52
2022/01/22 01:14:10;;;;;;;5.30;4.80;;;;;;;3.25;100.00;101741.44;5060312;28;20445;-51
2022/01/22 01:16:56;;;;;;;6.53;5.00;;;;;;;3.17;100.00;101760.97;5058032;28;20322;-51
2022/01/22 01:33:11;;;;;;;6.10;5.30;;;;;;;3.29;100.00;101751.13;5055868;28;20295;-49
2022/01/22 01:35:39;;;;;;;5.97;4.63;;;;;;;3.33;100.00;101755.66;5048012;28;20247;-49
2022/01/22 01:38:08;;;;;;;6.57;4.60;;;;;;;3.31;100.00;101765.06;5060874;28;20801;-47
2022/01/22 01:40:38;;;;;;;5.63;5.00;;;;;;;3.25;100.00;101758.72;5052303;28;20234;-48
2022/01/22 01:43:09;;;;;;;4.93;4.43;;;;;;;3.23;100.00;101769.03;5058372;28;20742;-49
2022/01/22 01:45:36;;;;;;;4.63;4.00;;;;;;;3.27;100.00;101778.72;5064720;28;20261;-49
2022/01/22 01:48:08;;;;;;;8.13;4.83;;;;;;;3.22;100.00;101777.63;5057475;28;20242;-49
2022/01/22 01:50:38;;;;;;;5.37;4.83;;;;;;;3.26;100.00;101784.72;5046041;28;20238;-51
2022/01/22 01:53:10;;;;;;;5.27;4.60;;;;;;;3.12;100.00;101796.16;5031897;28;20246;-49
2022/01/22 01:55:50;;;;;;;8.00;5.00;;;;;;;3.17;100.00;101794.69;5034749;28;20245;-50
2022/01/22 01:58:17;;;;;;;5.50;4.40;;;;;;;3.16;100.00;101798.13;5035757;28;20819;-49
2022/01/22 02:00:43;;;;;;;6.90;5.37;;;;;;;3.07;100.00;101795.09;5042852;28;20274;-50
2022/01/22 02:03:12;;;;;;;6.23;4.80;;;;;;;3.08;100.00;101794.25;5037420;28;20293;-48
2022/01/22 02:05:39;;;;;;;8.50;5.00;;;;;;;3.10;100.00;101803.00;5033863;28;20241;-48
2022/01/22 02:08:05;;;;;;;6.67;4.07;;;;;;;3.13;100.00;101810.94;5036532;28;20330;-50
2022/01/22 02:10:35;;;;;;;8.10;5.27;;;;;;;3.18;100.00;101812.03;5043783;28;20377;-50
2022/01/22 02:24:05;;;;;;;4.87;4.20;;;;;;;3.02;100.00;101831.19;5040039;28;20238;-46
2022/01/22 02:26:31;;;;;;;5.03;4.03;;;;;;;2.99;100.00;101836.25;5043645;28;20239;-49
2022/01/22 02:28:58;;;;;;;4.60;3.57;;;;;;;3.15;100.00;101839.53;5055928;28;20736;-49
2022/01/22 02:31:30;;;;;;;5.50;4.67;;;;;;;3.06;100.00;101842.59;5064256;28;20284;-53
2022/01/22 02:34:06;;;;;;;5.97;4.03;;;;;;;3.09;100.00;101853.13;5047826;28;20257;-50
2022/01/22 02:36:39;;;;;;;4.03;3.63;;;;;;;3.03;100.00;101855.44;5055293;28;20903;-49
2022/01/22 02:39:13;;;;;;;5.97;4.10;;;;;;;3.12;100.00;101858.44;5063339;28;20255;-50
2022/01/22 02:41:44;;;;;;;5.37;3.93;;;;;;;3.11;100.00;101856.66;5060005;28;20237;-48
2022/01/22 02:44:11;;;;;;;6.23;4.70;;;;;;;3.19;100.00;101854.44;5055915;28;20641;-50
2022/01/22 02:46:41;;;;;;;8.10;4.60;;;;;;;3.14;100.00;101859.41;5056768;28;20321;-50
2022/01/22 02:49:07;;;;;;;5.23;4.43;;;;;;;3.15;100.00;101847.31;5062336;28;20238;-50
2022/01/22 02:51:35;;;;;;;5.50;4.50;;;;;;;3.07;100.00;101854.75;5058061;28;20272;-48
2022/01/22 02:54:01;;;;;;;7.70;4.80;;;;;;;3.02;100.00;101854.53;5050306;28;20231;-46
2022/01/22 02:56:28;;;;;;;4.87;3.87;;;;;;;3.03;100.00;101850.25;5061517;28;20227;-49
2022/01/22 02:58:54;;;;;;;6.60;5.10;;;;;;;2.98;100.00;101862.09;5064124;28;20899;-49
2022/01/22 03:01:21;;;;;;;7.37;5.23;;;;;;;2.97;100.00;101868.97;5064471;28;20847;-53
2022/01/22 03:03:47;;;;;;;5.23;4.03;;;;;;;3.05;100.00;101866.75;5058931;28;20243;-50
2022/01/22 03:06:14;;;;;;;4.87;4.37;;;;;;;3.04;100.00;101871.06;5051557;28;20592;-51
2022/01/22 03:08:43;;;;;;;4.20;3.80;;;;;;;2.97;100.00;101868.97;5052706;28;20235;-48
2022/01/22 03:11:18;;;;;;;5.93;4.67;;;;;;;3.00;100.00;101865.66;5044445;28;20237;-48
2022/01/22 03:16:57;;;;;;;4.73;3.90;;;;;;;2.96;100.00;101881.91;5038320;28;20269;-50
2022/01/22 03:19:57;;;;;;;3.90;3.50;;;;;;;2.90;100.00;101881.59;5051948;28;20341;-50
2022/01/22 03:22:28;;;;;;;7.40;4.70;;;;;;;2.98;100.00;101890.63;5056062;28;20225;-50
2022/01/22 03:27:40;;;;;;;4.33;3.90;;;;;;;2.90;100.00;101897.16;5066400;28;20249;-52
2022/01/22 03:30:07;;;;;;;4.57;4.13;;;;;;;2.77;100.00;101899.16;5066636;28;20238;-50
2022/01/22 03:32:39;;;;;;;6.57;4.13;;;;;;;2.73;100.00;101906.69;5067006;28;20234;-52
2022/01/22 03:35:11;;;;;;;5.07;4.07;;;;;;;2.69;100.00;101903.06;5062136;28;20651;-50
2022/01/22 03:37:39;;;;;;;6.13;4.40;;;;;;;2.81;100.00;101903.69;5066333;28;20270;-48
2022/01/22 03:40:08;;;;;;;5.60;4.20;;;;;;;2.77;100.00;101911.22;5063131;28;20671;-51
2022/01/22 03:42:35;;;;;;;4.57;4.17;;;;;;;2.69;100.00;101910.84;5055135;28;20246;-50
2022/01/22 03:45:01;;;;;;;5.70;4.37;;;;;;;2.70;100.00;101903.94;5055741;28;20234;-49
2022/01/22 03:47:28;;;;;;;4.47;3.90;;;;;;;2.59;100.00;101908.59;5061362;28;20234;-49
2022/01/22 03:49:54;;;;;;;4.37;3.97;;;;;;;2.68;100.00;101911.66;5066204;28;20299;-50
2022/01/22 03:52:21;;;;;;;6.47;4.27;;;;;;;2.53;100.00;101914.38;5064670;28;20233;-51
2022/01/22 03:54:47;;;;;;;3.77;3.47;;;;;;;2.54;100.00;101907.47;5052118;28;20243;-52
2022/01/22 03:57:15;;;;;;;5.73;3.30;;;;;;;2.55;100.00;101917.03;5058135;28;20238;-51
2022/01/22 03:59:41;;;;;;;5.97;3.83;;;;;;;2.46;100.00;101924.31;5059359;28;20730;-51
2022/01/22 04:02:41;;;;;;;6.57;4.10;;;;;;;2.29;100.00;101918.31;5062088;28;20231;-50
2022/01/22 04:05:04;;;;;;;4.50;3.37;;;;;;;2.25;100.00;101925.03;5055311;28;20248;-50
2022/01/22 04:10:25;;;;;;;5.63;2.83;;;;;;;2.31;100.00;101930.50;5043588;28;20347;-51
2022/01/22 04:12:58;;;;;;;6.73;4.13;;;;;;;2.27;100.00;101938.94;5062499;28;20253;-51
2022/01/22 04:15:27;;;;;;;12.50;5.03;;;;;;;2.29;100.00;101939.03;5065809;28;20870;-50
2022/01/22 04:26:23;;;;;;;4.17;3.00;;;;;;;2.12;100.00;101958.88;5021986;28;20231;-49
2022/01/22 04:28:51;;;;;;;3.80;2.20;;;;;;;2.05;100.00;101957.66;5029999;28;20261;-49
2022/01/22 04:31:17;;;;;;;4.90;3.70;;;;;;;2.00;100.00;101963.38;5038079;28;20296;-50
2022/01/22 04:33:44;;;;;;;4.63;2.90;;;;;;;2.01;100.00;101975.56;5045278;28;20665;-50
2022/01/22 04:36:11;;;;;;;3.10;2.80;;;;;;;2.02;100.00;101974.72;5038669;28;20655;-52
2022/01/22 04:38:37;;;;;;;8.50;3.47;;;;;;;2.00;100.00;101973.75;5041297;28;20242;-50
2022/01/22 04:41:05;;;;;;;2.50;2.20;;;;;;;2.01;100.00;101980.72;5043182;28;20235;-50
2022/01/22 04:43:33;;;;;;;4.00;3.07;;;;;;;1.98;100.00;101983.16;5049604;28;20321;-51
2022/01/22 04:46:12;;;;;;;3.37;3.07;;;;;;;1.90;100.00;101988.81;5043722;28;20695;-52
2022/01/22 04:48:52;;;;;;;3.43;2.50;;;;;;;1.85;100.00;101998.00;5054462;28;20277;-51
2022/01/22 04:57:02;;;;;;;3.27;2.93;;;;;;;1.95;100.00;102006.28;4996872;28;20251;-50
2022/01/22 04:59:28;;;;;;;3.13;2.90;;;;;;;1.96;100.00;102018.44;5023089;28;20645;-51
2022/01/22 05:01:56;;;;;;;7.70;3.87;;;;;;;2.00;100.00;102016.09;5041943;28;20300;-51
2022/01/22 05:04:22;;;;;;;4.63;3.33;;;;;;;1.96;100.00;102029.66;5048513;28;20239;-50
2022/01/22 05:06:49;;;;;;;4.30;2.83;;;;;;;2.09;100.00;102039.00;5048278;28;20266;-51
2022/01/22 05:09:15;;;;;;;5.57;2.67;;;;;;;2.03;100.00;102046.44;5049827;28;20234;-52
2022/01/22 05:11:41;;;;;;;5.73;3.20;;;;;;;1.99;100.00;102044.50;5060758;28;20242;-53
2022/01/22 05:14:08;;;;;;;5.63;2.80;;;;;;;1.92;100.00;102051.91;5061797;28;20279;-51
2022/01/22 05:16:34;;;;;;;8.03;3.40;;;;;;;1.99;100.00;102047.09;5056019;28;20288;-52
2022/01/22 05:19:08;;;;;;;5.70;3.77;;;;;;;1.98;100.00;102047.91;5060842;28;20292;-50
2022/01/22 05:21:36;;;;;;;5.17;3.90;;;;;;;2.03;100.00;102056.81;5063903;28;20230;-49
2022/01/22 05:24:08;;;;;;;5.70;3.33;;;;;;;2.09;100.00;102059.72;5062676;28;20709;-52
2022/01/22 05:27:14;;;;;;;6.17;3.03;;;;;;;2.14;100.00;102060.88;5043494;28;20258;-51
2022/01/22 05:30:08;;;;;;;5.33;2.70;;;;;;;2.12;100.00;102063.38;5032539;28;20277;-49
2022/01/22 05:32:49;;;;;;;4.37;2.97;;;;;;;2.00;100.00;102067.91;5043496;28;20334;-50
2022/01/22 05:38:01;;;;;;;5.30;2.83;;;;;;;1.97;100.00;102080.69;5055264;28;20265;-52
2022/01/22 05:40:29;;;;;;;4.30;3.40;;;;;;;1.92;100.00;102092.47;5039875;28;20242;-52
2022/01/22 05:42:55;;;;;;;6.23;3.07;;;;;;;1.84;100.00;102092.03;5029471;28;20246;-51
2022/01/22 05:45:22;;;;;;;2.20;2.00;;;;;;;1.87;100.00;102101.69;5030664;28;20255;-52
2022/01/22 05:47:48;;;;;;;5.73;3.17;;;;;;;1.92;100.00;102103.72;5043825;28;20262;-54
2022/01/22 05:50:28;;;;;;;2.70;2.50;;;;;;;1.83;100.00;102111.00;5053070;28;20238;-50
2022/01/22 05:52:58;;;;;;;2.93;2.37;;;;;;;1.82;100.00;102119.53;5062668;28;20238;-49
2022/01/22 05:59:35;;;;;;;5.83;2.43;;;;;;;1.87;100.00;102125.88;5057776;28;20241;-53
2022/01/22 06:01:01;;;;;;;3.07;2.07;;;;;;;1.76;100.00;102137.34;5064135;28;20371;-52
2022/01/22 06:03:27;;;;;;;8.13;2.43;;;;;;;1.66;100.00;102137.63;5054687;28;20303;-50
2022/01/22 06:05:55;;;;;;;3.13;2.13;;;;;;;1.65;100.00;102141.91;5060080;28;20253;-53
2022/01/22 06:08:21;;;;;;;6.57;2.40;;;;;;;1.75;100.00;102148.47;5057312;28;21011;-53
2022/01/22 06:10:54;;;;;;;5.57;2.40;;;;;;;1.67;100.00;102149.75;5056501;28;20307;-53
2022/01/22 06:13:22;;;;;;;3.43;2.47;;;;;;;1.62;100.00;102146.00;5060396;28;20230;-51
2022/01/22 06:15:48;;;;;;;2.70;2.50;;;;;;;1.56;100.00;102150.81;5063884;28;20789;-50
2022/01/22 06:18:15;;;;;;;3.43;2.50;;;;;;;1.50;100.00;102145.28;5063910;28;20653;-51
2022/01/22 06:20:41;;;;;;;3.73;2.20;;;;;;;1.48;100.00;102167.59;5064992;28;20269;-52
2022/01/22 06:23:09;;;;;;;3.07;2.07;;;;;;;1.45;100.00;102172.59;5059890;28;20263;-52
2022/01/22 06:25:35;;;;;;;2.97;2.57;;;;;;;1.41;100.00;102175.00;5067472;28;20242;-52
2022/01/22 06:28:02;;;;;;;5.77;3.30;;;;;;;1.38;100.00;102174.81;5053578;28;20247;-53
2022/01/22 06:30:28;;;;;;;9.20;3.03;;;;;;;1.36;100.00;102172.94;5067741;28;20242;-52
2022/01/22 06:32:54;;;;;;;5.93;3.27;;;;;;;1.30;100.00;102177.72;5060292;28;20246;-53
2022/01/22 06:35:21;;;;;;;6.70;4.00;;;;;;;1.30;100.00;102188.06;5065546;28;20262;-54
2022/01/22 06:37:47;;;;;;;5.37;3.83;;;;;;;1.29;100.00;102192.38;5070920;28;20273;-57
2022/01/22 06:42:59;;;;;;;7.67;3.50;;;;;;;1.30;100.00;102201.94;5074225;28;20293;-52
2022/01/22 06:45:25;;;;;;;6.07;3.40;;;;;;;1.33;100.00;102199.50;5075098;28;20243;-52
2022/01/22 06:47:51;;;;;;;5.07;3.10;;;;;;;1.30;100.00;102201.94;5078749;28;20875;-52
2022/01/22 06:50:19;;;;;;;5.03;3.03;;;;;;;1.29;100.00;102202.72;5073441;28;20234;-52
2022/01/22 06:52:45;;;;;;;6.10;3.70;;;;;;;1.30;100.00;102208.78;5062582;28;20737;-51
2022/01/22 06:55:15;;;;;;;5.83;3.30;;;;;;;1.29;100.00;102215.66;5062703;28;20377;-50
2022/01/22 06:57:43;;;;;;;9.00;3.60;;;;;;;1.29;100.00;102220.81;5051713;28;20661;-53
2022/01/22 07:00:10;;;;;;;5.10;3.33;;;;;;;1.30;100.00;102230.41;5069217;28;20229;-51
2022/01/22 07:02:36;;;;;;;6.00;4.10;;;;;;;1.29;100.00;102228.59;5076324;28;20281;-53
2022/01/22 07:05:03;;;;;;;7.33;4.33;;;;;;;1.29;100.00;102236.34;5063294;28;20235;-50
2022/01/22 07:07:29;;;;;;;5.50;3.90;;;;;;;1.30;100.00;102237.25;5056418;28;20827;-52
2022/01/22 07:09:55;;;;;;;5.10;3.77;;;;;;;1.31;100.00;102247.69;5052060;28;20411;-49
2022/01/22 07:12:22;;;;;;;6.10;3.93;;;;;;;1.34;100.00;102258.25;5063532;28;20233;-51
2022/01/22 07:14:49;;;;;;;3.27;2.87;;;;;;;1.34;100.00;102258.25;5065250;28;20242;-51
2022/01/22 07:17:16;;;;;;;5.73;3.03;;;;;;;1.36;100.00;102263.50;5057290;28;20229;-49
2022/01/22 07:19:43;;;;;;;6.57;3.30;;;;;;;1.37;100.00;102262.69;5063666;28;20234;-50
2022/01/22 07:22:30;;;;;;;3.87;3.40;;;;;;;1.36;100.00;102254.03;5059729;28;20238;-49
2022/01/22 07:24:56;;;;;;;6.77;3.43;;;;;;;1.36;100.00;102247.97;5060074;28;20237;-50
2022/01/22 07:27:23;;;;;;;8.20;4.13;;;;;;;1.38;100.00;102255.03;5055005;28;20636;-51
2022/01/22 07:29:50;;;;;;;3.67;2.40;;;;;;;1.40;100.00;102262.88;5062436;28;20234;-51
2022/01/22 07:32:26;;;;;;;3.40;3.07;;;;;;;1.42;100.00;102259.59;5057932;28;20255;-52
2022/01/22 07:34:53;;;;;;;4.03;3.00;;;;;;;1.50;100.00;102264.31;5053092;28;20242;-52
2022/01/22 07:37:19;;;;;;;7.57;4.10;;;;;;;1.52;100.00;102265.31;5057753;28;20338;-51
2022/01/22 07:39:45;;;;;;;4.23;3.67;;;;;;;1.62;100.00;102263.38;5061251;28;20280;-48
2022/01/22 07:42:12;;;;;;;7.33;3.87;;;;;;;1.61;100.00;102258.97;5060739;28;20319;-52
2022/01/22 07:44:38;;;;;;;6.60;4.00;;;;;;;1.58;100.00;102270.84;5062095;28;20253;-50
2022/01/22 07:47:06;;;;;;;7.87;3.77;;;;;;;1.57;100.00;102266.47;5061819;28;20238;-52
2022/01/22 07:49:32;;;;;;;7.90;3.77;;;;;;;1.60;100.00;102261.50;5063794;28;20230;-52
2022/01/22 07:51:59;;;;;;;4.80;3.53;;;;;;;1.62;100.00;102270.25;5058783;28;20258;-50
2022/01/22 07:54:25;;;;;;;7.40;3.90;;;;;;;1.64;100.00;102281.56;5055733;28;20316;-53
2022/01/22 07:56:51;;;;;;;5.47;3.13;;;;;;;1.62;100.00;102280.63;5060491;28;20292;-51
2022/01/22 07:59:18;;;;;;;6.23;3.70;;;;;;;1.60;100.00;102280.50;5055911;28;20628;-51
2022/01/22 08:01:44;;;;;;;7.57;4.47;;;;;;;1.67;100.00;102274.00;5055045;28;20235;-52
2022/01/22 08:04:12;;;;;;;5.73;3.50;;;;;;;1.69;100.00;102280.19;5053713;28;20768;-50
2022/01/22 08:06:38;;;;;;;4.37;3.27;;;;;;;1.74;100.00;102286.50;5055175;28;20309;-49
2022/01/22 08:09:05;;;;;;;5.07;3.53;;;;;;;1.83;100.00;102287.06;5052934;28;20258;-49
2022/01/22 08:11:31;;;;;;;6.63;4.03;;;;;;;1.90;100.00;102283.16;5045151;28;20231;-51
2022/01/22 08:13:57;;;;;;;4.10;3.57;;;;;;;1.82;100.00;102285.25;5043463;28;20259;-54
2022/01/22 08:16:25;;;;;;;4.20;3.37;;;;;;;1.77;100.00;102291.88;5035589;28;20248;-50
2022/01/22 08:18:51;;;;;;;8.20;4.07;;;;;;;1.85;100.00;102290.63;5047840;28;20292;-50
2022/01/22 08:21:19;;;;;;;6.67;3.67;;;;;;;1.83;100.00;102294.84;5037395;28;20230;-54
2022/01/22 08:23:45;;;;;;;10.43;4.40;;;;;;;1.92;100.00;102313.50;5044921;28;20722;-51
2022/01/22 08:26:17;;;;;;;12.13;3.80;;;;;;;2.00;100.00;102315.63;5049889;28;20873;-52
2022/01/22 08:28:57;;;;;;;5.30;3.83;;;;;;;2.08;100.00;102309.25;5045205;28;20239;-52
2022/01/22 08:31:38;;;;;;;8.27;3.63;;;;;;;2.18;100.00;102311.56;5043643;28;20248;-50
2022/01/22 08:36:50;;;;;;;8.10;3.27;;;;;;;2.18;100.00;102324.53;5049001;28;20695;-52
2022/01/22 08:39:18;;;;;;;5.43;3.77;;;;;;;2.24;100.00;102334.34;5055955;28;20230;-49
2022/01/22 08:41:45;;;;;;;8.20;3.73;;;;;;;2.28;100.00;102334.63;5064437;28;20372;-50
2022/01/22 08:44:12;;;;;;;5.73;3.87;;;;;;;2.41;100.00;102333.63;5062985;28;20237;-48
2022/01/22 08:46:40;;;;;;;7.77;4.07;;;;;;;2.37;100.00;102337.72;5058961;28;20242;-53
2022/01/22 08:49:08;;;;;;;2.97;2.67;;;;;;;2.47;100.00;102344.34;5061697;28;20931;-50
2022/01/22 08:51:35;;;;;;;6.50;4.93;;;;;;;2.59;100.00;102336.38;5062838;28;20651;-51
2022/01/22 08:54:03;;;;;;;7.57;4.37;;;;;;;2.58;100.00;102335.47;5054485;28;20227;-52
2022/01/22 08:56:30;;;;;;;5.57;2.70;;;;;;;2.62;100.00;102347.81;5059110;28;20296;-50
2022/01/22 08:58:56;;;;;;;10.90;3.87;;;;;;;2.73;100.00;102345.81;5066153;28;20606;-53
2022/01/22 09:01:23;;;;;;;7.70;3.47;;;;;;;2.78;100.00;102352.19;5057057;28;20276;-52
2022/01/22 09:03:50;;;;;;;6.40;3.87;;;;;;;2.85;100.00;102354.31;5065461;28;20242;-53
2022/01/22 09:06:17;;;;;;;4.77;3.13;;;;;;;2.75;100.00;102364.09;5058801;28;20238;-51
2022/01/22 09:08:44;;;;;;;6.37;4.07;;;;;;;2.82;100.00;102364.50;5060100;28;20269;-51
2022/01/22 09:11:12;;;;;;;5.37;3.30;;;;;;;2.82;100.00;102374.88;5049897;28;20313;-51
2022/01/22 09:13:39;;;;;;;4.87;3.97;;;;;;;2.96;100.00;102374.78;5057975;28;20250;-50
2022/01/22 09:16:05;;;;;;;3.40;3.10;;;;;;;2.99;100.00;102374.94;5063222;28;20278;-50
2022/01/22 09:18:32;;;;;;;11.37;3.63;;;;;;;2.99;100.00;102377.56;5060875;28;20234;-50
2022/01/22 09:21:06;;;;;;;6.63;2.60;;;;;;;2.91;100.00;102383.97;5056862;28;20238;-49
2022/01/22 09:23:33;;;;;;;5.87;3.53;;;;;;;3.02;100.00;102380.28;5058821;28;20322;-50
2022/01/22 09:26:00;;;;;;;5.03;3.57;;;;;;;3.07;100.00;102391.84;5063242;28;20238;-53
2022/01/22 09:28:30;;;;;;;5.77;3.67;;;;;;;2.99;100.00;102390.53;5063504;28;20277;-48
2022/01/22 09:30:56;;;;;;;7.03;3.63;;;;;;;3.07;100.00;102397.03;5066993;28;20745;-50
2022/01/22 09:33:22;;;;;;;4.67;3.43;;;;;;;3.07;100.00;102399.63;5069192;28;21348;-51
2022/01/22 09:35:49;;;;;;;5.93;3.70;;;;;;;3.07;100.00;102402.22;5068515;28;20257;-51
2022/01/22 09:38:15;;;;;;;4.23;3.73;;;;;;;3.12;100.00;102398.16;5067106;28;20238;-53
2022/01/22 09:40:41;;;;;;;8.30;4.27;;;;;;;3.09;100.00;102400.63;5071155;28;20247;-53
2022/01/22 09:43:09;;;;;;;5.73;3.33;;;;;;;3.08;100.00;102397.09;5075068;28;20513;-52
2022/01/22 09:45:37;;;;;;;5.33;3.70;;;;;;;3.09;100.00;102411.00;5067570;28;20308;-49
2022/01/22 09:48:04;;;;;;;6.73;4.40;;;;;;;3.00;100.00;102408.75;5060754;28;20272;-51
2022/01/22 09:50:32;;;;;;;6.10;3.73;;;;;;;3.07;100.00;102416.06;5057015;28;21466;-53
2022/01/22 09:52:58;;;;;;;8.20;4.00;;;;;;;3.20;100.00;102412.47;5056562;28;20280;-59
2022/01/22 09:55:25;;;;;;;6.27;3.93;;;;;;;3.10;100.00;102415.38;5056075;28;20249;-51
2022/01/22 09:57:53;;;;;;;5.87;3.70;;;;;;;3.06;100.00;102414.31;5059861;28;20231;-53
2022/01/22 10:00:20;;;;;;;5.30;3.50;;;;;;;3.05;100.00;102424.56;5050982;28;20223;-50
2022/01/22 10:02:49;;;;;;;8.47;3.97;;;;;;;3.03;100.00;102419.31;5054569;28;20234;-48
2022/01/22 10:05:31;;;;;;;4.83;4.30;;;;;;;3.04;100.00;102427.97;5053603;28;20836;-51
2022/01/22 10:08:19;;;;;;;7.03;4.27;;;;;;;3.04;100.00;102436.66;5053879;28;20251;-50
2022/01/22 10:10:46;;;;;;;7.27;4.10;;;;;;;3.14;100.00;102427.69;5050048;28;20243;-51
2022/01/22 10:13:12;;;;;;;7.50;4.27;;;;;;;3.27;100.00;102425.00;5056664;28;20247;-49
2022/01/22 10:15:39;;;;;;;7.20;4.60;;;;;;;3.33;100.00;102430.53;5051445;28;20254;-51
2022/01/22 10:18:07;;;;;;;7.27;3.83;;;;;;;3.28;100.00;102437.16;5055160;28;20679;-49
2022/01/22 10:20:39;;;;;;;9.97;4.13;;;;;;;3.31;100.00;102437.31;5051822;28;20237;-52
2022/01/22 10:23:09;;;;;;;6.77;4.03;;;;;;;3.33;100.00;102430.53;5056853;28;20267;-56
2022/01/22 10:25:40;;;;;;;5.20;3.27;;;;;;;3.40;100.00;102438.63;5056769;28;20233;-53
2022/01/22 10:28:09;;;;;;;4.53;4.13;;;;;;;3.46;100.00;102442.47;5059974;28;20230;-50
2022/01/22 10:30:39;;;;;;;10.50;3.93;;;;;;;3.57;100.00;102438.75;5055513;28;20422;-50
2022/01/22 10:33:21;;;;;;;10.80;3.93;;;;;;;3.69;100.00;102446.34;5055577;28;20303;-51
2022/01/22 10:35:47;;;;;;;4.77;3.60;;;;;;;3.69;100.00;102432.47;5052814;28;20219;-50
2022/01/22 10:38:15;;;;;;;5.13;3.07;;;;;;;3.76;100.00;102442.38;5051277;28;20257;-54
2022/01/22 10:40:42;;;;;;;5.47;2.90;;;;;;;3.66;100.00;102446.16;5061963;28;20230;-52
2022/01/22 10:43:17;;;;;;;4.67;3.23;;;;;;;3.77;100.00;102439.84;5054799;28;20723;-50
2022/01/22 10:46:04;;;;;;;6.37;3.33;;;;;;;3.80;100.00;102439.13;5053664;28;20229;-48
2022/01/22 10:48:32;;;;;;;4.80;3.13;;;;;;;3.80;99.58;102439.13;5057188;28;20601;-52
2022/01/22 10:51:04;;;;;;;8.23;3.30;;;;;;;3.77;100.00;102434.66;5063281;28;20264;-50
2022/01/22 10:53:44;;;;;;;4.97;3.43;;;;;;;3.72;100.00;102441.31;5062296;28;20329;-52
2022/01/22 10:56:13;;;;;;;5.27;3.23;;;;;;;3.69;100.00;102443.75;5054787;28;20233;-49
2022/01/22 10:58:51;;;;;;;6.13;3.83;;;;;;;3.64;100.00;102440.00;5063835;28;20620;-51
2022/01/22 11:01:17;;;;;;;8.57;3.40;;;;;;;3.70;100.00;102442.03;5046654;28;20255;-52
2022/01/22 11:03:45;;;;;;;6.67;3.20;;;;;;;3.90;97.02;102440.53;5057795;28;20234;-50
2022/01/22 11:06:27;;;;;;;7.77;3.33;;;;;;;3.90;97.25;102440.53;5050663;28;20751;-51
2022/01/22 11:08:55;;;;;;;5.40;2.57;;;;;;;4.02;96.30;102438.56;5060346;28;20257;-52
2022/01/22 11:11:22;;;;;;;5.67;3.60;;;;;;;3.98;96.75;102436.63;5055890;28;20227;-49
2022/01/22 11:13:48;;;;;;;8.00;3.07;;;;;;;4.01;95.68;102435.06;5058191;28;20642;-48
2022/01/22 11:16:16;;;;;;;4.83;2.30;;;;;;;4.12;95.65;102438.25;5049638;28;20232;-54
2022/01/22 11:18:48;;;;;;;7.40;2.70;;;;;;;4.01;94.80;102437.69;5059027;28;20250;-54
2022/01/22 11:21:16;;;;;;;2.90;2.08;;;;;;;4.18;94.45;102435.97;5054513;28;20485;-51
2022/01/22 11:23:42;;;;;;;3.57;1.80;;;;;;;4.41;86.76;102433.66;5049572;28;20304;-52
2022/01/22 11:26:10;;;;;;;6.60;1.70;;;;;;;4.49;85.47;102434.94;5055280;28;20301;-53
2022/01/22 11:28:37;;;;;;;3.13;1.70;;;;;;;4.54;84.26;102433.47;5059163;28;20242;-52
2022/01/22 11:31:04;;;;;;;2.93;1.50;;;;;;;4.67;84.54;102433.28;5055665;28;20250;-52
2022/01/22 11:33:31;;;;;;;8.60;2.13;;;;;;;4.64;83.91;102433.13;5053430;28;20251;-53
2022/01/22 11:36:04;;;;;;;2.07;1.40;;;;;;;4.55;84.04;102432.66;5056114;28;20259;-55
2022/01/22 11:38:32;;;;;;;2.17;1.30;;;;;;;4.50;84.38;102422.03;5059620;28;20242;-52
2022/01/22 11:41:06;;;;;;;2.63;1.80;;;;;;;4.43;85.05;102419.94;5065041;28;20312;-53
2022/01/22 11:43:55;;;;;;;4.20;1.77;;;;;;;4.44;85.77;102418.22;5054988;28;20231;-52
2022/01/22 11:46:27;;;;;;;5.07;2.43;;;;;;;4.46;84.73;102416.59;5062258;28;20508;-52
2022/01/22 11:49:13;;;;;;;2.50;2.30;;;;;;;4.29;85.62;102420.94;5061714;28;20788;-49
2022/01/22 11:51:42;;;;;;;5.43;2.50;;;;;;;4.37;85.42;102429.13;5060893;28;20263;-49
2022/01/22 11:54:08;;;;;;;5.33;2.60;;;;;;;4.23;87.47;102426.69;5057999;28;20239;-51
2022/01/22 11:56:43;;;;;;;3.93;3.03;;;;;;;4.12;88.21;102434.75;5053653;28;20279;-52
2022/01/22 11:59:29;;;;;;;4.07;2.40;;;;;;;3.97;88.98;102433.13;5049760;28;20239;-46
2022/01/22 12:02:04;;;;;;;6.00;2.20;;;;;;;3.97;89.94;102432.25;5063624;28;20288;-50
2022/01/22 12:04:48;;;;;;;4.23;2.20;;;;;;;3.83;90.13;102442.78;5059587;28;20725;-48
2022/01/22 12:07:18;;;;;;;6.87;2.40;;;;;;;3.83;90.67;102445.38;5050865;28;20228;-48
2022/01/22 12:09:53;;;;;;;7.27;2.90;;;;;;;3.98;89.16;102444.41;5058806;28;20239;-50
2022/01/22 12:15:10;;;;;;;6.37;3.10;;;;;;;3.80;88.62;102445.22;5058546;28;20737;-46
2022/01/22 12:18:09;;;;;;;4.73;2.57;;;;;;;3.77;89.27;102444.16;5060765;28;20371;-50
2022/01/22 12:21:30;;;;;;;4.30;2.57;;;;;;;3.77;89.88;102434.66;5059061;28;20230;-50
2022/01/22 12:23:56;;;;;;;5.97;2.90;;;;;;;3.67;90.66;102442.75;5061135;28;20936;-51
2022/01/22 12:26:55;;;;;;;6.20;2.30;;;;;;;3.73;90.09;102437.00;5060738;28;24008;-51
2022/01/22 12:29:39;;;;;;;4.77;2.43;;;;;;;3.80;90.72;102439.13;5045752;28;21680;-50
2022/01/22 12:32:22;;;;;;;3.43;2.20;;;;;;;3.79;90.68;102443.44;5049636;28;20237;-47
2022/01/22 12:35:00;;;;;;;7.57;3.13;;;;;;;3.70;90.52;102447.22;5055923;28;20334;-50
2022/01/22 12:37:29;;;;;;;4.20;3.83;;;;;;;3.71;92.16;102459.41;5054572;28;20245;-51
2022/01/22 12:39:56;;;;;;;7.60;2.77;;;;;;;3.89;91.37;102451.72;5056912;28;20231;-49